Northwest Alabama Regional Airport
KMSL : now visible

Airfield :











YOU CAN JOIN US ON...

 
LOGIN :

Register | Disclaimer

   EN    FR    IT 

 









Legend :    VFR   Marginal VFR   IFR   Intensive IFR   Very Intensive IFR
Visi :
Ceiling :
>= 8 km
>= 3000ft
5 to 8 km
1000 to 3000 ft
1500m to 5 km
500 to 1000 ft
800 to 1500m
200 to 500 ft
< 800m
< 200 ft
Symbols :   Thunderstorms  Fog  Heavy snow  Heavy precipitations  Wind > 20 kt






- Airport Elevation : 551 ft
- IATA code : MSL


KMSL - Northwest Alabama Regional

CURRENT METAR :
  • 181953Z AUTO 12005KT 10SM SCT031 BKN041 OVC085 24/17 A3014 RMK AO2 SLPNO T02390167

EXPIRED METARs :
  • 181853Z AUTO 14010KT 10SM OVC090 24/16 A3014 RMK AO2 SLPNO T02390161
  • 181753Z AUTO A3016 RMK AO2 SLPNO PWINO $

TAF KMSL
Valid from the 18 at 18:00 until the 19 at 18:00 UTC


181720Z 1818/1918 14010G17KT P6SM VCSH SCT040 BKN150 OVC250
FM190100 13009KT P6SM FEW050 BKN250
FM191400 14010G18KT P6SM FEW040 SCT080 BKN150 AMD NOT SKED
KZME FIR / North America



MET'MAP, your aeronautical weather chart ! - Copyright ORBIFLY December 2007 - Disclaimer

ORBIFLY MET'MAP TEAM :

Programming & Development : Alexandra Zaïnal
Concept & original design : Baudouin d'Aumeries
Assistance for programming : Marc-Olivier Méhu
Technical & hardware support : Manuel Goepfert

Contact : metmap@orbifly.com




SOURCES & CREDITS :

   NOAA       Earth
Advisory